sensor_id;sensor_type;location;lat;lon;timestamp;P1;durP1;ratioP1;P2;durP2;ratioP2
36629;SDS011;36256;42.154;23.002;2023-10-09T00:02:10;11.88;;;2.90;;
36629;SDS011;36256;42.154;23.002;2023-10-09T00:04:41;14.82;;;2.90;;
36629;SDS011;36256;42.154;23.002;2023-10-09T00:07:09;13.38;;;2.60;;
36629;SDS011;36256;42.154;23.002;2023-10-09T00:09:37;16.50;;;2.88;;
36629;SDS011;36256;42.154;23.002;2023-10-09T00:14:49;13.23;;;2.70;;
36629;SDS011;36256;42.154;23.002;2023-10-09T00:17:19;15.70;;;2.95;;
36629;SDS011;36256;42.154;23.002;2023-10-09T00:19:49;13.00;;;3.03;;
36629;SDS011;36256;42.154;23.002;2023-10-09T00:22:18;15.80;;;2.97;;
36629;SDS011;36256;42.154;23.002;2023-10-09T00:24:54;10.45;;;2.85;;
36629;SDS011;36256;42.154;23.002;2023-10-09T00:27:38;19.30;;;2.78;;
36629;SDS011;36256;42.154;23.002;2023-10-09T00:30:09;12.27;;;2.58;;
36629;SDS011;36256;42.154;23.002;2023-10-09T00:32:37;13.18;;;3.10;;
36629;SDS011;36256;42.154;23.002;2023-10-09T00:35:11;11.57;;;2.15;;
36629;SDS011;36256;42.154;23.002;2023-10-09T00:37:57;13.40;;;2.72;;
36629;SDS011;36256;42.154;23.002;2023-10-09T00:40:32;11.10;;;3.20;;
36629;SDS011;36256;42.154;23.002;2023-10-09T00:43:02;12.85;;;2.53;;
36629;SDS011;36256;42.154;23.002;2023-10-09T00:45:37;11.23;;;2.47;;
36629;SDS011;36256;42.154;23.002;2023-10-09T00:48:07;9.65;;;2.50;;
36629;SDS011;36256;42.154;23.002;2023-10-09T00:50:35;10.48;;;2.50;;
36629;SDS011;36256;42.154;23.002;2023-10-09T00:53:02;8.25;;;2.63;;
36629;SDS011;36256;42.154;23.002;2023-10-09T00:55:36;12.10;;;2.70;;
36629;SDS011;36256;42.154;23.002;2023-10-09T00:58:08;10.38;;;2.60;;
36629;SDS011;36256;42.154;23.002;2023-10-09T01:00:39;10.32;;;2.35;;
36629;SDS011;36256;42.154;23.002;2023-10-09T01:03:18;9.52;;;2.15;;
36629;SDS011;36256;42.154;23.002;2023-10-09T01:05:48;12.23;;;2.55;;
36629;SDS011;36256;42.154;23.002;2023-10-09T01:08:23;9.38;;;2.13;;
36629;SDS011;36256;42.154;23.002;2023-10-09T01:11:10;8.35;;;2.47;;
36629;SDS011;36256;42.154;23.002;2023-10-09T01:13:49;10.25;;;2.20;;
36629;SDS011;36256;42.154;23.002;2023-10-09T01:16:17;8.88;;;2.63;;
36629;SDS011;36256;42.154;23.002;2023-10-09T01:18:45;9.25;;;2.40;;
36629;SDS011;36256;42.154;23.002;2023-10-09T01:21:16;9.98;;;2.38;;
36629;SDS011;36256;42.154;23.002;2023-10-09T01:23:44;11.63;;;2.20;;
36629;SDS011;36256;42.154;23.002;2023-10-09T01:26:32;10.95;;;2.50;;
36629;SDS011;36256;42.154;23.002;2023-10-09T01:29:13;7.28;;;2.20;;
36629;SDS011;36256;42.154;23.002;2023-10-09T01:31:49;6.70;;;2.10;;
36629;SDS011;36256;42.154;23.002;2023-10-09T01:34:31;9.35;;;2.47;;
36629;SDS011;36256;42.154;23.002;2023-10-09T01:37:06;9.40;;;2.25;;
36629;SDS011;36256;42.154;23.002;2023-10-09T01:39:49;7.97;;;2.25;;
36629;SDS011;36256;42.154;23.002;2023-10-09T01:42:18;8.57;;;2.05;;
36629;SDS011;36256;42.154;23.002;2023-10-09T01:45:02;7.78;;;2.40;;
36629;SDS011;36256;42.154;23.002;2023-10-09T01:47:58;8.68;;;2.05;;
36629;SDS011;36256;42.154;23.002;2023-10-09T01:50:24;6.13;;;1.52;;
36629;SDS011;36256;42.154;23.002;2023-10-09T01:52:58;5.15;;;1.70;;
36629;SDS011;36256;42.154;23.002;2023-10-09T01:55:31;5.63;;;1.95;;
36629;SDS011;36256;42.154;23.002;2023-10-09T01:58:06;6.10;;;2.00;;
36629;SDS011;36256;42.154;23.002;2023-10-09T02:00:54;6.55;;;1.63;;
36629;SDS011;36256;42.154;23.002;2023-10-09T02:03:25;5.65;;;1.73;;
36629;SDS011;36256;42.154;23.002;2023-10-09T02:05:56;7.30;;;1.98;;
36629;SDS011;36256;42.154;23.002;2023-10-09T02:08:27;4.88;;;1.60;;
36629;SDS011;36256;42.154;23.002;2023-10-09T02:11:02;8.15;;;1.80;;
36629;SDS011;36256;42.154;23.002;2023-10-09T02:13:29;6.72;;;1.60;;
36629;SDS011;36256;42.154;23.002;2023-10-09T02:15:57;8.88;;;2.13;;
36629;SDS011;36256;42.154;23.002;2023-10-09T02:18:45;7.13;;;1.88;;
36629;SDS011;36256;42.154;23.002;2023-10-09T02:21:22;5.65;;;1.48;;
36629;SDS011;36256;42.154;23.002;2023-10-09T02:24:12;6.90;;;1.70;;
36629;SDS011;36256;42.154;23.002;2023-10-09T02:26:53;4.18;;;1.88;;
36629;SDS011;36256;42.154;23.002;2023-10-09T02:29:19;8.20;;;1.70;;
36629;SDS011;36256;42.154;23.002;2023-10-09T02:31:50;5.10;;;1.70;;
36629;SDS011;36256;42.154;23.002;2023-10-09T02:34:27;4.85;;;1.70;;
36629;SDS011;36256;42.154;23.002;2023-10-09T02:36:54;7.22;;;1.63;;
36629;SDS011;36256;42.154;23.002;2023-10-09T02:39:24;6.05;;;1.83;;
36629;SDS011;36256;42.154;23.002;2023-10-09T02:41:53;9.82;;;1.85;;
36629;SDS011;36256;42.154;23.002;2023-10-09T02:44:45;3.75;;;1.67;;
36629;SDS011;36256;42.154;23.002;2023-10-09T02:47:13;4.13;;;1.60;;
36629;SDS011;36256;42.154;23.002;2023-10-09T02:49:47;6.90;;;1.90;;
36629;SDS011;36256;42.154;23.002;2023-10-09T02:52:17;4.97;;;1.67;;
36629;SDS011;36256;42.154;23.002;2023-10-09T02:54:51;4.20;;;1.80;;
36629;SDS011;36256;42.154;23.002;2023-10-09T02:57:26;5.25;;;1.80;;
36629;SDS011;36256;42.154;23.002;2023-10-09T03:00:05;5.53;;;1.90;;
36629;SDS011;36256;42.154;23.002;2023-10-09T03:02:45;4.22;;;1.80;;
36629;SDS011;36256;42.154;23.002;2023-10-09T03:05:16;4.35;;;1.65;;
36629;SDS011;36256;42.154;23.002;2023-10-09T03:07:44;4.75;;;2.10;;
36629;SDS011;36256;42.154;23.002;2023-10-09T03:10:11;5.10;;;1.80;;
36629;SDS011;36256;42.154;23.002;2023-10-09T03:12:38;6.57;;;1.70;;
36629;SDS011;36256;42.154;23.002;2023-10-09T03:15:06;4.85;;;1.80;;
36629;SDS011;36256;42.154;23.002;2023-10-09T03:17:35;7.82;;;1.90;;
36629;SDS011;36256;42.154;23.002;2023-10-09T03:20:03;3.85;;;1.90;;
36629;SDS011;36256;42.154;23.002;2023-10-09T03:22:38;7.22;;;2.15;;
36629;SDS011;36256;42.154;23.002;2023-10-09T03:25:06;5.38;;;1.98;;
36629;SDS011;36256;42.154;23.002;2023-10-09T03:27:43;5.18;;;2.00;;
36629;SDS011;36256;42.154;23.002;2023-10-09T03:30:14;9.18;;;1.92;;
36629;SDS011;36256;42.154;23.002;2023-10-09T03:32:46;12.90;;;1.85;;
36629;SDS011;36256;42.154;23.002;2023-10-09T03:35:18;6.07;;;2.08;;
36629;SDS011;36256;42.154;23.002;2023-10-09T03:37:57;8.70;;;2.40;;
36629;SDS011;36256;42.154;23.002;2023-10-09T03:40:36;8.73;;;2.40;;
36629;SDS011;36256;42.154;23.002;2023-10-09T03:43:05;6.70;;;2.17;;
36629;SDS011;36256;42.154;23.002;2023-10-09T03:45:32;7.88;;;2.42;;
36629;SDS011;36256;42.154;23.002;2023-10-09T03:48:02;7.85;;;2.50;;
36629;SDS011;36256;42.154;23.002;2023-10-09T03:50:35;4.20;;;2.10;;
36629;SDS011;36256;42.154;23.002;2023-10-09T03:53:06;11.23;;;2.35;;
36629;SDS011;36256;42.154;23.002;2023-10-09T03:55:36;5.00;;;2.20;;
36629;SDS011;36256;42.154;23.002;2023-10-09T03:58:06;9.25;;;2.67;;
36629;SDS011;36256;42.154;23.002;2023-10-09T04:00:35;4.10;;;2.28;;
36629;SDS011;36256;42.154;23.002;2023-10-09T04:03:12;5.57;;;2.00;;
36629;SDS011;36256;42.154;23.002;2023-10-09T04:05:42;6.80;;;2.30;;
36629;SDS011;36256;42.154;23.002;2023-10-09T04:08:12;4.95;;;2.30;;
36629;SDS011;36256;42.154;23.002;2023-10-09T04:10:55;4.10;;;2.57;;
36629;SDS011;36256;42.154;23.002;2023-10-09T04:13:28;5.35;;;2.65;;
36629;SDS011;36256;42.154;23.002;2023-10-09T04:16:03;7.07;;;2.15;;
36629;SDS011;36256;42.154;23.002;2023-10-09T04:18:52;3.50;;;2.38;;
36629;SDS011;36256;42.154;23.002;2023-10-09T04:21:22;3.10;;;2.35;;
36629;SDS011;36256;42.154;23.002;2023-10-09T04:24:03;6.70;;;2.78;;
36629;SDS011;36256;42.154;23.002;2023-10-09T04:26:40;7.72;;;2.80;;
36629;SDS011;36256;42.154;23.002;2023-10-09T04:29:11;6.00;;;2.97;;
36629;SDS011;36256;42.154;23.002;2023-10-09T04:31:50;4.50;;;2.70;;
36629;SDS011;36256;42.154;23.002;2023-10-09T04:34:18;13.60;;;3.10;;
36629;SDS011;36256;42.154;23.002;2023-10-09T04:36:49;6.70;;;2.20;;
36629;SDS011;36256;42.154;23.002;2023-10-09T04:39:17;7.03;;;2.83;;
36629;SDS011;36256;42.154;23.002;2023-10-09T04:42:03;4.60;;;2.75;;
36629;SDS011;36256;42.154;23.002;2023-10-09T04:44:48;4.32;;;2.97;;
36629;SDS011;36256;42.154;23.002;2023-10-09T04:47:31;4.22;;;2.78;;
36629;SDS011;36256;42.154;23.002;2023-10-09T04:50:25;7.45;;;3.00;;
36629;SDS011;36256;42.154;23.002;2023-10-09T04:52:57;10.48;;;2.97;;
36629;SDS011;36256;42.154;23.002;2023-10-09T04:55:44;5.22;;;2.60;;
36629;SDS011;36256;42.154;23.002;2023-10-09T04:58:21;6.95;;;3.00;;
36629;SDS011;36256;42.154;23.002;2023-10-09T05:00:54;8.30;;;3.17;;
36629;SDS011;36256;42.154;23.002;2023-10-09T05:03:24;6.70;;;3.40;;
36629;SDS011;36256;42.154;23.002;2023-10-09T05:05:54;6.45;;;3.20;;
36629;SDS011;36256;42.154;23.002;2023-10-09T05:08:46;8.52;;;3.10;;
36629;SDS011;36256;42.154;23.002;2023-10-09T05:11:14;4.05;;;3.00;;
36629;SDS011;36256;42.154;23.002;2023-10-09T05:14:01;5.97;;;2.72;;
36629;SDS011;36256;42.154;23.002;2023-10-09T05:16:40;8.98;;;3.10;;
36629;SDS011;36256;42.154;23.002;2023-10-09T05:19:21;6.03;;;3.00;;
36629;SDS011;36256;42.154;23.002;2023-10-09T05:22:11;5.97;;;3.00;;
36629;SDS011;36256;42.154;23.002;2023-10-09T05:24:58;4.53;;;3.15;;
36629;SDS011;36256;42.154;23.002;2023-10-09T05:27:25;5.40;;;2.90;;
36629;SDS011;36256;42.154;23.002;2023-10-09T05:30:11;6.75;;;2.92;;
36629;SDS011;36256;42.154;23.002;2023-10-09T05:32:54;7.63;;;2.95;;
36629;SDS011;36256;42.154;23.002;2023-10-09T05:35:25;12.93;;;2.78;;
36629;SDS011;36256;42.154;23.002;2023-10-09T05:38:06;6.50;;;2.50;;
36629;SDS011;36256;42.154;23.002;2023-10-09T05:40:41;4.00;;;2.33;;
36629;SDS011;36256;42.154;23.002;2023-10-09T05:43:12;6.10;;;2.28;;
36629;SDS011;36256;42.154;23.002;2023-10-09T05:45:58;5.80;;;2.30;;
36629;SDS011;36256;42.154;23.002;2023-10-09T05:48:36;3.90;;;2.15;;
36629;SDS011;36256;42.154;23.002;2023-10-09T05:51:05;6.72;;;2.20;;
36629;SDS011;36256;42.154;23.002;2023-10-09T05:53:35;6.82;;;2.42;;
36629;SDS011;36256;42.154;23.002;2023-10-09T05:56:11;5.68;;;2.05;;
36629;SDS011;36256;42.154;23.002;2023-10-09T05:58:56;6.38;;;2.22;;
36629;SDS011;36256;42.154;23.002;2023-10-09T06:01:32;4.40;;;1.98;;
36629;SDS011;36256;42.154;23.002;2023-10-09T06:04:17;7.05;;;1.92;;
36629;SDS011;36256;42.154;23.002;2023-10-09T06:06:46;6.03;;;1.98;;
36629;SDS011;36256;42.154;23.002;2023-10-09T06:09:22;4.47;;;1.90;;
36629;SDS011;36256;42.154;23.002;2023-10-09T06:11:49;4.03;;;1.80;;
36629;SDS011;36256;42.154;23.002;2023-10-09T06:14:22;6.25;;;1.90;;
36629;SDS011;36256;42.154;23.002;2023-10-09T06:16:57;9.30;;;1.83;;
36629;SDS011;36256;42.154;23.002;2023-10-09T06:19:34;6.70;;;1.70;;
36629;SDS011;36256;42.154;23.002;2023-10-09T06:22:10;8.57;;;2.00;;
36629;SDS011;36256;42.154;23.002;2023-10-09T06:25:05;12.33;;;2.13;;
36629;SDS011;36256;42.154;23.002;2023-10-09T06:27:35;9.15;;;2.30;;
36629;SDS011;36256;42.154;23.002;2023-10-09T06:30:02;7.95;;;2.92;;
36629;SDS011;36256;42.154;23.002;2023-10-09T06:32:50;13.38;;;2.40;;
36629;SDS011;36256;42.154;23.002;2023-10-09T06:35:18;13.07;;;2.60;;
36629;SDS011;36256;42.154;23.002;2023-10-09T06:37:46;17.20;;;2.65;;
36629;SDS011;36256;42.154;23.002;2023-10-09T06:40:33;9.93;;;2.63;;
36629;SDS011;36256;42.154;23.002;2023-10-09T06:43:21;12.93;;;2.70;;
36629;SDS011;36256;42.154;23.002;2023-10-09T06:45:49;12.90;;;2.60;;
36629;SDS011;36256;42.154;23.002;2023-10-09T06:48:35;8.98;;;2.53;;
36629;SDS011;36256;42.154;23.002;2023-10-09T06:51:02;8.43;;;1.75;;
36629;SDS011;36256;42.154;23.002;2023-10-09T06:53:48;5.93;;;1.67;;
36629;SDS011;36256;42.154;23.002;2023-10-09T06:56:24;8.80;;;1.70;;
36629;SDS011;36256;42.154;23.002;2023-10-09T06:59:01;7.10;;;1.75;;
36629;SDS011;36256;42.154;23.002;2023-10-09T07:01:48;3.67;;;1.90;;
36629;SDS011;36256;42.154;23.002;2023-10-09T07:04:34;3.20;;;2.25;;
36629;SDS011;36256;42.154;23.002;2023-10-09T07:07:01;8.20;;;2.15;;
36629;SDS011;36256;42.154;23.002;2023-10-09T07:09:33;5.40;;;2.10;;
36629;SDS011;36256;42.154;23.002;2023-10-09T07:12:10;4.93;;;2.40;;
36629;SDS011;36256;42.154;23.002;2023-10-09T07:14:47;2.90;;;2.20;;
36629;SDS011;36256;42.154;23.002;2023-10-09T07:17:13;6.50;;;1.83;;
36629;SDS011;36256;42.154;23.002;2023-10-09T07:19:53;3.10;;;1.73;;
36629;SDS011;36256;42.154;23.002;2023-10-09T07:22:20;4.47;;;2.30;;
36629;SDS011;36256;42.154;23.002;2023-10-09T07:24:48;5.65;;;2.20;;
36629;SDS011;36256;42.154;23.002;2023-10-09T07:27:19;7.20;;;2.25;;
36629;SDS011;36256;42.154;23.002;2023-10-09T07:30:06;3.67;;;2.08;;
36629;SDS011;36256;42.154;23.002;2023-10-09T07:32:55;5.97;;;2.22;;
36629;SDS011;36256;42.154;23.002;2023-10-09T07:35:22;5.47;;;1.85;;
36629;SDS011;36256;42.154;23.002;2023-10-09T07:38:08;3.78;;;1.60;;
36629;SDS011;36256;42.154;23.002;2023-10-09T07:40:35;2.13;;;1.33;;
36629;SDS011;36256;42.154;23.002;2023-10-09T07:43:22;2.97;;;1.30;;
36629;SDS011;36256;42.154;23.002;2023-10-09T07:45:55;2.17;;;1.42;;
36629;SDS011;36256;42.154;23.002;2023-10-09T07:48:25;2.70;;;1.40;;
36629;SDS011;36256;42.154;23.002;2023-10-09T07:50:52;2.58;;;1.42;;
36629;SDS011;36256;42.154;23.002;2023-10-09T07:53:24;2.80;;;1.70;;
36629;SDS011;36256;42.154;23.002;2023-10-09T07:55:53;4.38;;;1.38;;
36629;SDS011;36256;42.154;23.002;2023-10-09T07:58:22;5.10;;;1.33;;
36629;SDS011;36256;42.154;23.002;2023-10-09T08:00:53;3.13;;;1.30;;
36629;SDS011;36256;42.154;23.002;2023-10-09T08:03:36;3.22;;;1.40;;
36629;SDS011;36256;42.154;23.002;2023-10-09T08:06:03;6.30;;;1.40;;
36629;SDS011;36256;42.154;23.002;2023-10-09T08:08:49;1.98;;;1.20;;
36629;SDS011;36256;42.154;23.002;2023-10-09T08:11:34;2.13;;;1.10;;
36629;SDS011;36256;42.154;23.002;2023-10-09T08:14:06;2.58;;;1.13;;
36629;SDS011;36256;42.154;23.002;2023-10-09T08:16:48;2.60;;;1.23;;
36629;SDS011;36256;42.154;23.002;2023-10-09T08:19:18;2.38;;;1.30;;
36629;SDS011;36256;42.154;23.002;2023-10-09T08:22:00;1.60;;;1.13;;
36629;SDS011;36256;42.154;23.002;2023-10-09T08:24:43;2.10;;;1.20;;
36629;SDS011;36256;42.154;23.002;2023-10-09T08:27:18;5.75;;;1.60;;
36629;SDS011;36256;42.154;23.002;2023-10-09T08:30:04;2.78;;;1.20;;
36629;SDS011;36256;42.154;23.002;2023-10-09T08:32:47;3.42;;;1.40;;
36629;SDS011;36256;42.154;23.002;2023-10-09T08:35:30;4.88;;;1.20;;
36629;SDS011;36256;42.154;23.002;2023-10-09T08:38:02;2.70;;;1.20;;
36629;SDS011;36256;42.154;23.002;2023-10-09T08:40:35;3.55;;;1.10;;
36629;SDS011;36256;42.154;23.002;2023-10-09T08:45:42;2.75;;;1.30;;
36629;SDS011;36256;42.154;23.002;2023-10-09T08:48:12;3.25;;;1.20;;
36629;SDS011;36256;42.154;23.002;2023-10-09T08:50:44;4.50;;;1.15;;
36629;SDS011;36256;42.154;23.002;2023-10-09T08:53:12;2.40;;;1.08;;
36629;SDS011;36256;42.154;23.002;2023-10-09T08:55:40;2.40;;;0.88;;
36629;SDS011;36256;42.154;23.002;2023-10-09T08:58:07;3.90;;;0.98;;
36629;SDS011;36256;42.154;23.002;2023-10-09T09:00:53;4.28;;;0.90;;
36629;SDS011;36256;42.154;23.002;2023-10-09T09:03:22;2.70;;;1.20;;
36629;SDS011;36256;42.154;23.002;2023-10-09T09:05:58;1.95;;;1.10;;
36629;SDS011;36256;42.154;23.002;2023-10-09T09:08:29;1.42;;;0.90;;
36629;SDS011;36256;42.154;23.002;2023-10-09T09:11:00;4.32;;;1.17;;
36629;SDS011;36256;42.154;23.002;2023-10-09T09:18:55;5.78;;;1.33;;
36629;SDS011;36256;42.154;23.002;2023-10-09T09:21:35;4.13;;;1.35;;
36629;SDS011;36256;42.154;23.002;2023-10-09T09:24:10;3.65;;;1.20;;
36629;SDS011;36256;42.154;23.002;2023-10-09T09:26:50;3.38;;;1.15;;
36629;SDS011;36256;42.154;23.002;2023-10-09T09:32:06;2.55;;;1.00;;
36629;SDS011;36256;42.154;23.002;2023-10-09T09:34:47;5.47;;;1.23;;
36629;SDS011;36256;42.154;23.002;2023-10-09T09:37:24;1.80;;;1.10;;
36629;SDS011;36256;42.154;23.002;2023-10-09T09:39:58;1.70;;;1.10;;
36629;SDS011;36256;42.154;23.002;2023-10-09T09:42:54;3.05;;;1.20;;
36629;SDS011;36256;42.154;23.002;2023-10-09T09:45:31;4.57;;;1.20;;
36629;SDS011;36256;42.154;23.002;2023-10-09T09:48:00;2.70;;;1.23;;
36629;SDS011;36256;42.154;23.002;2023-10-09T09:50:32;2.33;;;1.20;;
36629;SDS011;36256;42.154;23.002;2023-10-09T09:52:59;3.67;;;1.27;;
36629;SDS011;36256;42.154;23.002;2023-10-09T09:55:31;5.25;;;1.20;;
36629;SDS011;36256;42.154;23.002;2023-10-09T09:58:02;3.60;;;1.27;;
36629;SDS011;36256;42.154;23.002;2023-10-09T10:00:34;2.38;;;1.35;;
36629;SDS011;36256;42.154;23.002;2023-10-09T10:03:12;1.73;;;1.00;;
36629;SDS011;36256;42.154;23.002;2023-10-09T10:05:45;2.05;;;1.00;;
36629;SDS011;36256;42.154;23.002;2023-10-09T10:08:19;2.25;;;1.17;;
36629;SDS011;36256;42.154;23.002;2023-10-09T10:10:48;3.10;;;1.25;;
36629;SDS011;36256;42.154;23.002;2023-10-09T10:16:07;3.47;;;1.30;;
36629;SDS011;36256;42.154;23.002;2023-10-09T10:21:48;2.53;;;1.17;;
36629;SDS011;36256;42.154;23.002;2023-10-09T10:27:22;2.67;;;1.25;;
36629;SDS011;36256;42.154;23.002;2023-10-09T10:35:19;4.60;;;1.30;;
36629;SDS011;36256;42.154;23.002;2023-10-09T10:37:58;2.92;;;1.23;;
36629;SDS011;36256;42.154;23.002;2023-10-09T10:40:34;1.95;;;1.10;;
36629;SDS011;36256;42.154;23.002;2023-10-09T10:43:16;2.83;;;1.20;;
36629;SDS011;36256;42.154;23.002;2023-10-09T10:46:07;3.08;;;1.10;;
36629;SDS011;36256;42.154;23.002;2023-10-09T10:48:40;3.80;;;1.10;;
36629;SDS011;36256;42.154;23.002;2023-10-09T10:51:13;5.07;;;1.20;;
36629;SDS011;36256;42.154;23.002;2023-10-09T10:53:51;3.13;;;1.30;;
36629;SDS011;36256;42.154;23.002;2023-10-09T10:56:24;1.70;;;1.20;;
36629;SDS011;36256;42.154;23.002;2023-10-09T10:59:02;1.25;;;1.05;;
36629;SDS011;36256;42.154;23.002;2023-10-09T11:01:34;2.65;;;1.10;;
36629;SDS011;36256;42.154;23.002;2023-10-09T11:04:20;2.60;;;1.20;;
36629;SDS011;36256;42.154;23.002;2023-10-09T11:07:05;3.25;;;1.20;;
36629;SDS011;36256;42.154;23.002;2023-10-09T11:09:54;2.65;;;1.30;;
36629;SDS011;36256;42.154;23.002;2023-10-09T11:12:52;2.78;;;1.30;;
36629;SDS011;36256;42.154;23.002;2023-10-09T11:15:29;3.78;;;0.90;;
36629;SDS011;36256;42.154;23.002;2023-10-09T11:18:11;3.83;;;1.15;;
36629;SDS011;36256;42.154;23.002;2023-10-09T11:20:54;2.40;;;1.25;;
36629;SDS011;36256;42.154;23.002;2023-10-09T11:23:25;1.90;;;1.13;;
36629;SDS011;36256;42.154;23.002;2023-10-09T11:26:02;3.30;;;1.10;;
36629;SDS011;36256;42.154;23.002;2023-10-09T11:31:59;2.45;;;0.93;;
36629;SDS011;36256;42.154;23.002;2023-10-09T11:34:36;2.50;;;0.90;;
36629;SDS011;36256;42.154;23.002;2023-10-09T11:37:13;3.42;;;1.15;;
36629;SDS011;36256;42.154;23.002;2023-10-09T11:39:58;1.95;;;1.17;;
36629;SDS011;36256;42.154;23.002;2023-10-09T11:42:27;4.07;;;1.00;;
36629;SDS011;36256;42.154;23.002;2023-10-09T11:47:47;2.03;;;0.93;;
36629;SDS011;36256;42.154;23.002;2023-10-09T11:53:21;1.75;;;1.05;;
36629;SDS011;36256;42.154;23.002;2023-10-09T11:58:15;2.08;;;1.00;;
36629;SDS011;36256;42.154;23.002;2023-10-09T12:00:52;2.50;;;1.10;;
36629;SDS011;36256;42.154;23.002;2023-10-09T12:03:24;1.42;;;1.00;;
36629;SDS011;36256;42.154;23.002;2023-10-09T12:05:59;1.80;;;1.00;;
36629;SDS011;36256;42.154;23.002;2023-10-09T12:08:32;2.28;;;1.10;;
36629;SDS011;36256;42.154;23.002;2023-10-09T12:11:00;3.55;;;1.10;;
36629;SDS011;36256;42.154;23.002;2023-10-09T12:13:29;1.88;;;1.02;;
36629;SDS011;36256;42.154;23.002;2023-10-09T12:15:56;2.08;;;1.10;;
36629;SDS011;36256;42.154;23.002;2023-10-09T12:18:24;3.50;;;1.10;;
36629;SDS011;36256;42.154;23.002;2023-10-09T12:20:51;2.30;;;1.20;;
36629;SDS011;36256;42.154;23.002;2023-10-09T12:23:19;2.38;;;1.00;;
36629;SDS011;36256;42.154;23.002;2023-10-09T12:25:50;1.85;;;1.02;;
36629;SDS011;36256;42.154;23.002;2023-10-09T12:28:17;2.40;;;1.10;;
36629;SDS011;36256;42.154;23.002;2023-10-09T12:30:47;5.40;;;1.10;;
36629;SDS011;36256;42.154;23.002;2023-10-09T12:33:18;2.17;;;1.20;;
36629;SDS011;36256;42.154;23.002;2023-10-09T12:35:46;1.45;;;1.02;;
36629;SDS011;36256;42.154;23.002;2023-10-09T12:38:13;1.75;;;1.10;;
36629;SDS011;36256;42.154;23.002;2023-10-09T12:40:45;1.48;;;0.98;;
36629;SDS011;36256;42.154;23.002;2023-10-09T12:43:18;2.13;;;0.93;;
36629;SDS011;36256;42.154;23.002;2023-10-09T12:45:48;1.67;;;0.98;;
36629;SDS011;36256;42.154;23.002;2023-10-09T12:48:15;2.92;;;1.10;;
36629;SDS011;36256;42.154;23.002;2023-10-09T12:50:42;2.25;;;1.20;;
36629;SDS011;36256;42.154;23.002;2023-10-09T12:53:11;5.10;;;1.20;;
36629;SDS011;36256;42.154;23.002;2023-10-09T12:55:39;2.00;;;1.10;;
36629;SDS011;36256;42.154;23.002;2023-10-09T12:58:08;1.70;;;1.00;;
36629;SDS011;36256;42.154;23.002;2023-10-09T13:00:41;3.83;;;1.35;;
36629;SDS011;36256;42.154;23.002;2023-10-09T13:03:16;4.15;;;1.45;;
36629;SDS011;36256;42.154;23.002;2023-10-09T13:05:45;3.00;;;1.08;;
36629;SDS011;36256;42.154;23.002;2023-10-09T13:08:22;2.95;;;1.30;;
36629;SDS011;36256;42.154;23.002;2023-10-09T13:10:50;9.13;;;1.23;;
36629;SDS011;36256;42.154;23.002;2023-10-09T13:13:25;5.57;;;0.95;;
36629;SDS011;36256;42.154;23.002;2023-10-09T13:16:06;3.63;;;1.20;;
36629;SDS011;36256;42.154;23.002;2023-10-09T13:18:34;7.25;;;1.70;;
36629;SDS011;36256;42.154;23.002;2023-10-09T13:21:01;3.70;;;1.40;;
36629;SDS011;36256;42.154;23.002;2023-10-09T13:23:33;4.15;;;1.38;;
36629;SDS011;36256;42.154;23.002;2023-10-09T13:26:06;4.07;;;1.45;;
36629;SDS011;36256;42.154;23.002;2023-10-09T13:28:57;4.90;;;1.20;;
36629;SDS011;36256;42.154;23.002;2023-10-09T13:31:25;4.72;;;1.25;;
36629;SDS011;36256;42.154;23.002;2023-10-09T13:33:53;7.03;;;1.13;;
36629;SDS011;36256;42.154;23.002;2023-10-09T13:36:22;5.20;;;1.13;;
36629;SDS011;36256;42.154;23.002;2023-10-09T13:39:08;5.05;;;1.10;;
36629;SDS011;36256;42.154;23.002;2023-10-09T13:41:51;5.30;;;1.58;;
36629;SDS011;36256;42.154;23.002;2023-10-09T13:44:29;3.43;;;1.30;;
36629;SDS011;36256;42.154;23.002;2023-10-09T13:46:57;4.60;;;1.45;;
36629;SDS011;36256;42.154;23.002;2023-10-09T13:49:25;2.78;;;1.30;;
36629;SDS011;36256;42.154;23.002;2023-10-09T13:51:58;5.47;;;1.30;;
36629;SDS011;36256;42.154;23.002;2023-10-09T13:54:28;2.72;;;1.20;;
36629;SDS011;36256;42.154;23.002;2023-10-09T13:57:06;3.90;;;1.30;;
36629;SDS011;36256;42.154;23.002;2023-10-09T13:59:34;3.25;;;1.15;;
36629;SDS011;36256;42.154;23.002;2023-10-09T14:02:02;3.35;;;1.25;;
36629;SDS011;36256;42.154;23.002;2023-10-09T14:04:36;4.55;;;1.10;;
36629;SDS011;36256;42.154;23.002;2023-10-09T14:07:03;3.30;;;1.20;;
36629;SDS011;36256;42.154;23.002;2023-10-09T14:09:32;3.30;;;1.15;;
36629;SDS011;36256;42.154;23.002;2023-10-09T14:12:20;4.15;;;1.30;;
36629;SDS011;36256;42.154;23.002;2023-10-09T14:14:48;3.10;;;1.17;;
36629;SDS011;36256;42.154;23.002;2023-10-09T14:17:16;4.43;;;1.60;;
36629;SDS011;36256;42.154;23.002;2023-10-09T14:19:53;3.40;;;1.00;;
36629;SDS011;36256;42.154;23.002;2023-10-09T14:22:43;3.90;;;1.27;;
36629;SDS011;36256;42.154;23.002;2023-10-09T14:25:11;5.85;;;1.35;;
36629;SDS011;36256;42.154;23.002;2023-10-09T14:27:42;1.92;;;1.00;;
36629;SDS011;36256;42.154;23.002;2023-10-09T14:30:08;2.05;;;0.95;;
36629;SDS011;36256;42.154;23.002;2023-10-09T14:32:39;2.67;;;1.13;;
36629;SDS011;36256;42.154;23.002;2023-10-09T14:35:18;4.18;;;1.30;;
36629;SDS011;36256;42.154;23.002;2023-10-09T14:37:48;3.03;;;1.38;;
36629;SDS011;36256;42.154;23.002;2023-10-09T14:40:15;2.38;;;1.27;;
36629;SDS011;36256;42.154;23.002;2023-10-09T14:42:47;3.13;;;1.42;;
36629;SDS011;36256;42.154;23.002;2023-10-09T14:45:23;4.18;;;1.40;;
36629;SDS011;36256;42.154;23.002;2023-10-09T14:47:53;2.95;;;1.58;;
36629;SDS011;36256;42.154;23.002;2023-10-09T14:50:21;3.63;;;1.20;;
36629;SDS011;36256;42.154;23.002;2023-10-09T14:52:51;3.50;;;1.20;;
36629;SDS011;36256;42.154;23.002;2023-10-09T14:55:18;3.55;;;1.30;;
36629;SDS011;36256;42.154;23.002;2023-10-09T14:57:48;5.63;;;1.10;;
36629;SDS011;36256;42.154;23.002;2023-10-09T15:00:18;5.75;;;1.52;;
36629;SDS011;36256;42.154;23.002;2023-10-09T15:02:50;4.45;;;1.35;;
36629;SDS011;36256;42.154;23.002;2023-10-09T15:05:18;2.85;;;1.50;;
36629;SDS011;36256;42.154;23.002;2023-10-09T15:10:13;5.45;;;1.38;;
36629;SDS011;36256;42.154;23.002;2023-10-09T15:12:42;4.55;;;1.40;;
36629;SDS011;36256;42.154;23.002;2023-10-09T15:15:15;4.25;;;1.63;;
36629;SDS011;36256;42.154;23.002;2023-10-09T15:17:42;4.55;;;1.40;;
36629;SDS011;36256;42.154;23.002;2023-10-09T15:20:15;2.92;;;1.17;;
36629;SDS011;36256;42.154;23.002;2023-10-09T15:22:42;3.60;;;1.17;;
36629;SDS011;36256;42.154;23.002;2023-10-09T15:25:10;2.72;;;1.05;;
36629;SDS011;36256;42.154;23.002;2023-10-09T15:27:42;3.90;;;1.88;;
36629;SDS011;36256;42.154;23.002;2023-10-09T15:30:09;5.45;;;2.33;;
36629;SDS011;36256;42.154;23.002;2023-10-09T15:32:41;5.00;;;2.10;;
36629;SDS011;36256;42.154;23.002;2023-10-09T15:37:36;4.30;;;1.95;;
36629;SDS011;36256;42.154;23.002;2023-10-09T15:40:04;1.73;;;1.23;;
36629;SDS011;36256;42.154;23.002;2023-10-09T15:42:32;3.83;;;1.40;;
36629;SDS011;36256;42.154;23.002;2023-10-09T15:45:02;4.05;;;1.35;;
36629;SDS011;36256;42.154;23.002;2023-10-09T15:47:33;3.25;;;1.45;;
36629;SDS011;36256;42.154;23.002;2023-10-09T15:50:03;2.58;;;1.13;;
36629;SDS011;36256;42.154;23.002;2023-10-09T15:52:30;2.80;;;1.35;;
36629;SDS011;36256;42.154;23.002;2023-10-09T15:54:56;4.60;;;1.27;;
36629;SDS011;36256;42.154;23.002;2023-10-09T15:57:23;2.40;;;1.13;;
36629;SDS011;36256;42.154;23.002;2023-10-09T15:59:50;2.33;;;1.10;;